Time;durP1;ratioP1;P1;durP2;ratioP2;P2;SDS_P1;SDS_P2;PMS_P1;PMS_P2;Temp;Humidity;BMP_temperature;BMP_pressure;BME280_temperature;BME280_humidity;BME280_pressure;Samples;Min_cycle;Max_cycle;Signal;HPM_P1;HPM_P2
2023/01/26 00:01:45;;;;;;;33.17;17.80;;;3.60;77.30;;;;;;6218257;23;20384;-77
2023/01/26 00:04:13;;;;;;;35.95;20.23;;;3.60;77.30;;;;;;6220217;23;20175;-78
2023/01/26 00:06:41;;;;;;;35.30;19.38;;;3.60;77.20;;;;;;6220479;23;20242;-78
2023/01/26 00:09:13;;;;;;;37.13;19.17;;;3.60;77.20;;;;;;6219860;23;20200;-78
2023/01/26 00:11:41;;;;;;;34.17;18.83;;;3.60;77.10;;;;;;6218915;23;20191;-78
2023/01/26 00:14:10;;;;;;;32.40;17.45;;;3.60;77.00;;;;;;6184633;23;20654;-79
2023/01/26 00:16:39;;;;;;;35.65;19.20;;;3.50;76.90;;;;;;6184528;23;20909;-77
2023/01/26 00:19:07;;;;;;;38.35;19.60;;;3.40;76.90;;;;;;6220685;23;20199;-77
2023/01/26 00:21:35;;;;;;;32.63;17.80;;;3.40;77.10;;;;;;6220593;23;20231;-77
2023/01/26 00:24:03;;;;;;;31.70;18.90;;;3.50;77.20;;;;;;6184609;23;20967;-77
2023/01/26 00:26:31;;;;;;;36.65;19.58;;;3.50;77.40;;;;;;6221335;23;20177;-77
2023/01/26 00:29:02;;;;;;;37.55;19.75;;;3.50;77.20;;;;;;6184401;23;20196;-77
2023/01/26 00:31:32;;;;;;;31.30;17.13;;;3.50;77.10;;;;;;6181727;23;20191;-79
2023/01/26 00:34:00;;;;;;;35.65;20.10;;;3.50;77.20;;;;;;6180087;23;20670;-77
2023/01/26 00:36:28;;;;;;;36.20;18.65;;;3.50;77.20;;;;;;6217702;23;20700;-79
2023/01/26 00:38:56;;;;;;;35.70;19.67;;;3.60;77.20;;;;;;6181351;23;20203;-79
2023/01/26 00:44:09;;;;;;;30.70;18.02;;;3.60;77.20;;;;;;6179127;23;20239;-77
2023/01/26 00:46:39;;;;;;;34.47;18.80;;;3.60;77.10;;;;;;6184518;23;20180;-76
2023/01/26 00:49:07;;;;;;;39.53;18.73;;;3.60;77.10;;;;;;6182616;23;20195;-77
2023/01/26 00:51:35;;;;;;;35.50;18.63;;;3.60;77.00;;;;;;6216817;23;20188;-78
2023/01/26 00:54:04;;;;;;;36.10;18.58;;;3.60;77.10;;;;;;6179693;23;20176;-77
2023/01/26 00:56:32;;;;;;;37.85;19.40;;;3.60;77.20;;;;;;6180093;23;20176;-78
2023/01/26 00:59:00;;;;;;;33.85;18.13;;;3.60;77.20;;;;;;6216814;23;20265;-79
2023/01/26 01:01:28;;;;;;;33.95;18.75;;;3.60;77.10;;;;;;6217076;23;20157;-78
2023/01/26 01:03:57;;;;;;;32.55;18.40;;;3.60;77.10;;;;;;6216565;23;20184;-79
2023/01/26 01:06:25;;;;;;;37.72;18.27;;;3.60;77.00;;;;;;6179554;23;20267;-78
2023/01/26 01:08:53;;;;;;;34.80;19.75;;;3.60;77.10;;;;;;6217006;23;20231;-78
2023/01/26 01:11:21;;;;;;;41.10;19.90;;;3.60;77.00;;;;;;6178669;23;20247;-79
2023/01/26 01:13:51;;;;;;;36.10;19.42;;;3.60;77.00;;;;;;6179533;23;20495;-79
2023/01/26 01:16:19;;;;;;;34.72;19.40;;;3.60;77.10;;;;;;6218801;23;20175;-79
2023/01/26 01:18:47;;;;;;;33.90;18.55;;;3.60;77.00;;;;;;6180837;23;20226;-79
2023/01/26 01:21:17;;;;;;;37.30;19.17;;;3.60;77.10;;;;;;6180653;23;20183;-79
2023/01/26 01:23:46;;;;;;;35.83;20.60;;;3.70;77.10;;;;;;6181175;23;20179;-79
2023/01/26 01:26:15;;;;;;;36.83;19.75;;;3.70;77.10;;;;;;6184200;23;20188;-79
2023/01/26 01:28:44;;;;;;;32.38;18.20;;;3.70;77.00;;;;;;6184082;23;20203;-80
2023/01/26 01:31:14;;;;;;;37.45;19.65;;;3.70;77.00;;;;;;6184934;23;20176;-79
2023/01/26 01:33:42;;;;;;;37.83;19.67;;;3.70;77.00;;;;;;6184135;23;20260;-79
2023/01/26 01:36:12;;;;;;;38.60;21.30;;;3.70;77.00;;;;;;6184884;23;20185;-77
2023/01/26 01:38:42;;;;;;;37.15;19.40;;;3.70;76.90;;;;;;6221017;23;20215;-78
2023/01/26 01:41:10;;;;;;;37.45;20.33;;;3.70;76.90;;;;;;6222524;23;20191;-79
2023/01/26 01:43:39;;;;;;;39.03;20.30;;;3.70;76.80;;;;;;6188114;23;20172;-78
2023/01/26 01:46:12;;;;;;;32.35;17.95;;;3.60;76.80;;;;;;6187439;23;20418;-79
2023/01/26 01:48:47;;;;;;;35.92;17.73;;;3.60;76.90;;;;;;6187281;23;20259;-78
2023/01/26 01:51:31;;;;;;;29.95;16.50;;;3.60;76.80;;;;;;6188656;23;20180;-76
2023/01/26 01:54:03;;;;;;;34.30;17.30;;;3.60;76.80;;;;;;6226212;23;20635;-78
2023/01/26 01:56:33;;;;;;;40.78;18.70;;;3.60;76.80;;;;;;6225480;23;20168;-79
2023/01/26 01:59:04;;;;;;;43.55;21.10;;;3.60;76.70;;;;;;6186780;23;20196;-77
2023/01/26 02:01:31;;;;;;;39.50;20.42;;;3.50;76.60;;;;;;6223968;23;20161;-77
2023/01/26 02:04:01;;;;;;;33.00;18.90;;;3.40;76.40;;;;;;6185884;23;20179;-77
2023/01/26 02:06:35;;;;;;;34.85;17.45;;;3.40;76.60;;;;;;6186590;23;20253;-79
2023/01/26 02:09:05;;;;;;;37.15;17.52;;;3.40;76.80;;;;;;6187394;23;20231;-78
2023/01/26 02:11:38;;;;;;;35.65;18.50;;;3.40;76.90;;;;;;6187885;23;20223;-78
2023/01/26 02:14:09;;;;;;;33.35;18.23;;;3.40;76.80;;;;;;6225264;23;20174;-77
2023/01/26 02:16:38;;;;;;;32.38;18.33;;;3.40;76.80;;;;;;6187686;23;20173;-77
2023/01/26 02:19:20;;;;;;;37.42;18.10;;;3.40;76.90;;;;;;6185299;23;20212;-78
2023/01/26 02:21:50;;;;;;;30.27;17.52;;;3.50;76.90;;;;;;6220411;23;20160;-77
2023/01/26 02:24:25;;;;;;;29.75;18.13;;;3.50;76.80;;;;;;6183621;23;20287;-78
2023/01/26 02:26:54;;;;;;;31.15;17.10;;;3.50;76.80;;;;;;6185367;23;20180;-78
2023/01/26 02:29:23;;;;;;;32.78;16.20;;;3.50;76.80;;;;;;6182475;23;20203;-79
2023/01/26 02:31:52;;;;;;;31.33;16.65;;;3.50;76.80;;;;;;6183723;23;20184;-78
2023/01/26 02:34:23;;;;;;;31.55;17.00;;;3.50;76.80;;;;;;6184830;23;20234;-78
2023/01/26 02:36:58;;;;;;;34.00;18.83;;;3.50;76.70;;;;;;6181736;23;20259;-78
2023/01/26 02:39:41;;;;;;;31.98;17.70;;;3.50;76.80;;;;;;6185538;23;20588;-79
2023/01/26 02:44:56;;;;;;;32.03;17.30;;;3.50;76.80;;;;;;6186721;23;20195;-78
2023/01/26 02:47:24;;;;;;;36.60;18.88;;;3.50;76.70;;;;;;6188347;23;20187;-78
2023/01/26 02:49:51;;;;;;;29.00;16.98;;;3.50;76.70;;;;;;6189581;23;20207;-79
2023/01/26 02:52:22;;;;;;;33.45;17.13;;;3.50;76.70;;;;;;6187556;23;20278;-78
2023/01/26 02:57:46;;;;;;;39.78;19.10;;;3.50;76.70;;;;;;6184589;23;20168;-80
2023/01/26 03:00:16;;;;;;;38.00;19.05;;;3.50;76.70;;;;;;6186310;23;20206;-78
2023/01/26 03:02:46;;;;;;;36.72;17.92;;;3.50;76.70;;;;;;6187300;23;20172;-78
2023/01/26 03:05:14;;;;;;;38.95;20.98;;;3.50;76.70;;;;;;6190295;23;20250;-78
2023/01/26 03:07:42;;;;;;;48.10;22.70;;;3.50;76.60;;;;;;6190275;23;20180;-80
2023/01/26 03:10:12;;;;;;;52.72;25.25;;;3.50;76.60;;;;;;6184644;23;20199;-80
2023/01/26 03:12:40;;;;;;;47.85;24.30;;;3.50;76.50;;;;;;6224492;23;20179;-79
2023/01/26 03:27:25;;;;;;;45.75;24.88;;;3.40;76.70;;;;;;6186557;23;20176;-79
2023/01/26 03:29:21;;;;;;;48.47;24.83;;;3.40;76.80;;;;;;6183709;23;20283;-78
2023/01/26 03:31:52;;;;;;;47.33;23.73;;;3.40;76.80;;;;;;6184410;23;20191;-77
2023/01/26 03:34:21;;;;;;;48.42;25.48;;;3.40;76.80;;;;;;6186903;23;20244;-77
2023/01/26 03:36:49;;;;;;;44.33;23.83;;;3.40;76.60;;;;;;6185469;23;20563;-76
2023/01/26 03:56:20;;;;;;;53.80;24.08;;;3.40;76.90;;;;;;6186180;23;20184;-77
2023/01/26 03:58:53;;;;;;;53.22;23.58;;;3.40;76.90;;;;;;6185881;23;20537;-78
2023/01/26 04:01:26;;;;;;;48.22;22.55;;;3.40;76.90;;;;;;6186060;23;20621;-77
2023/01/26 04:09:35;;;;;;;40.55;22.20;;;3.30;76.80;;;;;;6186028;23;20283;-77
2023/01/26 04:12:04;;;;;;;44.47;22.42;;;3.30;76.80;;;;;;6222958;23;20164;-78
2023/01/26 04:22:57;;;;;;;45.15;22.95;;;3.30;76.80;;;;;;6188135;23;20207;-76
2023/01/26 04:25:25;;;;;;;37.80;21.77;;;3.20;76.90;;;;;;6224018;23;20180;-76
2023/01/26 04:27:56;;;;;;;40.38;20.58;;;3.20;77.10;;;;;;6186625;23;20707;-80
2023/01/26 04:30:24;;;;;;;38.97;20.13;;;3.20;77.20;;;;;;6184466;23;20196;-80
2023/01/26 04:32:52;;;;;;;40.17;19.98;;;3.30;77.10;;;;;;6186841;23;20180;-78
2023/01/26 04:35:21;;;;;;;35.45;19.02;;;3.30;77.20;;;;;;6184182;23;20202;-80
2023/01/26 04:37:49;;;;;;;38.20;19.25;;;3.30;77.10;;;;;;6186515;23;20181;-79
2023/01/26 04:40:18;;;;;;;36.45;19.83;;;3.30;77.20;;;;;;6186156;23;20196;-78
2023/01/26 04:42:46;;;;;;;32.88;18.08;;;3.30;77.10;;;;;;6183439;23;20284;-77
2023/01/26 04:45:14;;;;;;;38.42;19.77;;;3.30;77.10;;;;;;6183309;23;20188;-79
2023/01/26 04:47:44;;;;;;;38.50;19.13;;;3.30;77.10;;;;;;6184064;23;20180;-77
2023/01/26 04:50:12;;;;;;;39.53;20.92;;;3.40;77.00;;;;;;6184792;23;20202;-80
2023/01/26 04:52:42;;;;;;;33.58;17.73;;;3.30;77.00;;;;;;6183559;23;20173;-80
2023/01/26 04:55:10;;;;;;;36.60;18.42;;;3.30;76.90;;;;;;6185056;23;20180;-78
2023/01/26 04:57:41;;;;;;;34.17;19.10;;;3.30;77.10;;;;;;6185411;23;20182;-77
2023/01/26 05:00:11;;;;;;;34.67;19.02;;;3.30;77.10;;;;;;6184137;23;20211;-77
2023/01/26 05:02:41;;;;;;;36.58;19.95;;;3.30;77.20;;;;;;6184731;23;20184;-80
2023/01/26 05:05:09;;;;;;;43.78;20.23;;;3.30;77.20;;;;;;6186270;23;20180;-80
2023/01/26 05:07:38;;;;;;;33.75;18.20;;;3.30;77.20;;;;;;6187594;23;20187;-77
2023/01/26 05:10:09;;;;;;;37.67;19.75;;;3.30;77.10;;;;;;6187355;23;20196;-79
2023/01/26 05:12:54;;;;;;;35.83;19.55;;;3.30;77.10;;;;;;6186916;23;20211;-81
2023/01/26 05:15:34;;;;;;;34.15;19.23;;;3.30;77.20;;;;;;6187279;23;20172;-79
2023/01/26 05:18:13;;;;;;;42.88;19.55;;;3.30;77.20;;;;;;6189359;23;20787;-77
2023/01/26 05:20:56;;;;;;;33.88;17.67;;;3.30;77.30;;;;;;6190713;23;20588;-78
2023/01/26 05:23:30;;;;;;;34.83;18.63;;;3.30;77.20;;;;;;6187007;23;20479;-80
2023/01/26 05:26:18;;;;;;;32.08;17.42;;;3.30;77.20;;;;;;6214057;23;20186;-77
2023/01/26 05:28:56;;;;;;;29.75;16.88;;;3.30;77.30;;;;;;6188221;23;20595;-79
2023/01/26 05:31:24;;;;;;;30.10;16.38;;;3.30;77.20;;;;;;6224389;23;20767;-80
2023/01/26 05:33:53;;;;;;;34.88;16.25;;;3.30;77.30;;;;;;6188263;23;20272;-79
2023/01/26 05:36:23;;;;;;;32.50;16.55;;;3.30;77.20;;;;;;6190065;23;20176;-77
2023/01/26 05:38:51;;;;;;;32.97;15.93;;;3.30;77.20;;;;;;6192388;23;20283;-78
2023/01/26 05:41:25;;;;;;;33.20;16.52;;;3.30;77.20;;;;;;6193187;23;20223;-78
2023/01/26 05:44:12;;;;;;;30.52;16.08;;;3.30;77.10;;;;;;6219963;23;20171;-78
2023/01/26 05:46:47;;;;;;;30.98;16.30;;;3.30;77.10;;;;;;6189963;23;20176;-76
2023/01/26 05:49:15;;;;;;;33.28;15.57;;;3.30;77.20;;;;;;6189938;23;20484;-76
2023/01/26 05:51:43;;;;;;;26.08;14.30;;;3.30;77.30;;;;;;6189932;23;20180;-76
2023/01/26 05:54:11;;;;;;;30.08;16.25;;;3.30;77.40;;;;;;6183163;23;20180;-77
2023/01/26 05:56:41;;;;;;;30.23;14.93;;;3.30;77.40;;;;;;6185124;23;20183;-77
2023/01/26 05:59:09;;;;;;;27.30;15.60;;;3.30;77.40;;;;;;6186684;23;20200;-78
2023/01/26 06:01:38;;;;;;;30.77;15.57;;;3.30;77.20;;;;;;6184601;23;20196;-78
2023/01/26 06:04:08;;;;;;;30.50;16.05;;;3.30;77.10;;;;;;6184777;23;20203;-78
2023/01/26 06:06:43;;;;;;;29.17;15.32;;;3.30;77.20;;;;;;6181572;23;20168;-79
2023/01/26 06:09:22;;;;;;;26.58;14.75;;;3.30;77.20;;;;;;6182417;23;20195;-77
2023/01/26 06:12:16;;;;;;;26.90;15.45;;;3.30;77.30;;;;;;6183133;23;20168;-79
2023/01/26 06:14:56;;;;;;;30.40;14.43;;;3.30;77.30;;;;;;6223828;23;20731;-78
2023/01/26 06:17:30;;;;;;;31.02;16.08;;;3.30;77.30;;;;;;6185306;23;20176;-80
2023/01/26 06:20:01;;;;;;;33.55;15.77;;;3.30;77.40;;;;;;6186490;23;20211;-79
2023/01/26 06:22:31;;;;;;;29.45;14.88;;;3.30;77.40;;;;;;6188588;23;20189;-78
2023/01/26 06:24:59;;;;;;;27.55;14.38;;;3.30;77.40;;;;;;6188229;23;20410;-79
2023/01/26 06:27:29;;;;;;;27.35;14.63;;;3.30;77.40;;;;;;6184813;23;20184;-79
2023/01/26 06:29:59;;;;;;;28.35;14.43;;;3.30;77.40;;;;;;6183550;23;20192;-79
2023/01/26 06:32:28;;;;;;;27.92;15.05;;;3.30;77.20;;;;;;6181984;23;20218;-79
2023/01/26 06:34:56;;;;;;;28.60;15.02;;;3.20;77.10;;;;;;6183783;23;20184;-79
2023/01/26 06:37:25;;;;;;;29.80;15.15;;;3.20;77.30;;;;;;6185453;23;20180;-76
2023/01/26 06:40:01;;;;;;;28.85;15.90;;;3.20;77.30;;;;;;6186689;23;20207;-78
2023/01/26 06:42:30;;;;;;;29.13;14.23;;;3.20;77.50;;;;;;6188638;23;20199;-78
2023/01/26 06:44:58;;;;;;;28.08;15.63;;;3.30;77.50;;;;;;6225577;23;20287;-80
2023/01/26 06:47:26;;;;;;;26.67;12.70;;;3.30;77.40;;;;;;6187691;23;20180;-79
2023/01/26 06:49:54;;;;;;;22.75;12.13;;;3.30;77.40;;;;;;6188739;23;20207;-80
2023/01/26 06:52:27;;;;;;;25.55;12.90;;;3.30;77.40;;;;;;6185910;23;20211;-79
2023/01/26 06:55:00;;;;;;;18.08;10.13;;;3.30;77.40;;;;;;6181317;23;20183;-79
2023/01/26 06:57:53;;;;;;;23.02;10.93;;;3.30;77.20;;;;;;6185046;23;20218;-78
2023/01/26 07:00:48;;;;;;;24.38;12.05;;;3.20;77.20;;;;;;6182902;23;20272;-78
2023/01/26 07:03:26;;;;;;;21.90;11.77;;;3.20;77.20;;;;;;6220816;23;20155;-79
2023/01/26 07:05:54;;;;;;;19.13;10.32;;;3.10;77.30;;;;;;6222260;23;20183;-78
2023/01/26 07:08:22;;;;;;;21.77;11.05;;;3.10;77.30;;;;;;6221862;23;20178;-78
2023/01/26 07:10:50;;;;;;;22.02;10.50;;;3.10;77.40;;;;;;6179419;23;20230;-79
2023/01/26 07:13:20;;;;;;;22.27;11.43;;;3.10;77.40;;;;;;6181349;23;20175;-77
2023/01/26 07:15:48;;;;;;;21.60;10.88;;;3.10;77.40;;;;;;6219968;23;20183;-80
2023/01/26 07:18:16;;;;;;;18.48;10.52;;;3.10;77.50;;;;;;6217378;23;20164;-78
2023/01/26 07:20:44;;;;;;;22.75;10.65;;;3.20;77.40;;;;;;6219154;23;20161;-82
2023/01/26 07:23:12;;;;;;;23.17;11.13;;;3.10;77.30;;;;;;6222951;23;20188;-83
2023/01/26 07:25:43;;;;;;;22.33;11.38;;;3.10;77.40;;;;;;6222844;23;20203;-79
2023/01/26 07:28:12;;;;;;;20.55;11.30;;;3.10;77.50;;;;;;6223636;23;20161;-79
2023/01/26 07:30:41;;;;;;;21.30;11.18;;;3.20;77.60;;;;;;6185795;23;20214;-82
2023/01/26 07:33:09;;;;;;;21.80;11.40;;;3.20;77.40;;;;;;6222728;23;20155;-82
2023/01/26 07:35:37;;;;;;;23.73;11.95;;;3.10;77.30;;;;;;6223464;23;20573;-79
2023/01/26 07:38:06;;;;;;;22.35;11.45;;;3.10;77.40;;;;;;6222388;23;20207;-79
2023/01/26 07:40:34;;;;;;;19.90;11.63;;;3.10;77.60;;;;;;6221974;23;20467;-81
2023/01/26 07:43:02;;;;;;;24.35;10.95;;;3.20;77.60;;;;;;6224145;23;20192;-80
2023/01/26 07:45:53;;;;;;;28.80;12.45;;;3.20;77.60;;;;;;6190739;23;20405;-83
2023/01/26 07:48:22;;;;;;;25.80;12.35;;;3.20;77.70;;;;;;6227686;23;20243;-84
2023/01/26 07:50:51;;;;;;;24.23;11.45;;;3.30;77.70;;;;;;6191366;23;20181;-81
2023/01/26 07:53:20;;;;;;;22.88;12.30;;;3.30;77.60;;;;;;6228904;23;20171;-81
2023/01/26 07:55:48;;;;;;;23.73;11.70;;;3.30;77.60;;;;;;6190109;23;20240;-81
2023/01/26 07:58:17;;;;;;;27.88;13.35;;;3.30;77.60;;;;;;6227601;23;20180;-81
2023/01/26 08:00:46;;;;;;;27.33;12.93;;;3.30;77.60;;;;;;6227423;23;20172;-82
2023/01/26 08:03:15;;;;;;;28.90;13.45;;;3.30;77.60;;;;;;6226371;23;20185;-83
2023/01/26 08:05:44;;;;;;;28.10;13.20;;;3.30;77.50;;;;;;6190879;23;20199;-81
2023/01/26 08:08:12;;;;;;;22.60;11.52;;;3.30;77.60;;;;;;6230174;23;20232;-81
2023/01/26 08:10:40;;;;;;;26.92;13.13;;;3.30;77.60;;;;;;6231053;23;20187;-80
2023/01/26 08:13:08;;;;;;;21.30;10.75;;;3.30;77.60;;;;;;6226275;23;20172;-77
2023/01/26 08:15:36;;;;;;;20.92;10.27;;;3.30;77.60;;;;;;6217188;23;20176;-78
2023/01/26 08:18:04;;;;;;;24.05;12.70;;;3.30;77.40;;;;;;6217814;23;20183;-76
2023/01/26 08:20:35;;;;;;;21.88;10.10;;;3.20;77.40;;;;;;6180601;23;20181;-79
2023/01/26 08:23:03;;;;;;;20.98;10.52;;;3.20;77.50;;;;;;6215789;23;20185;-77
2023/01/26 08:25:31;;;;;;;20.45;10.15;;;3.20;77.50;;;;;;6218865;23;20245;-76
2023/01/26 08:27:59;;;;;;;27.52;12.25;;;3.20;77.50;;;;;;6220893;23;20165;-77
2023/01/26 08:30:27;;;;;;;18.55;11.30;;;3.20;77.60;;;;;;6219194;23;20511;-77
2023/01/26 08:32:55;;;;;;;22.35;10.80;;;3.20;77.70;;;;;;6218354;23;20175;-78
2023/01/26 08:35:23;;;;;;;20.20;10.57;;;3.20;77.80;;;;;;6218787;23;20172;-77
2023/01/26 08:37:52;;;;;;;22.88;11.77;;;3.20;77.80;;;;;;6179982;23;20176;-78
2023/01/26 08:40:20;;;;;;;24.65;14.13;;;3.20;77.80;;;;;;6219126;23;20196;-77
2023/01/26 08:42:48;;;;;;;18.00;12.30;;;3.20;77.60;;;;;;6217538;23;20241;-77
2023/01/26 08:45:16;;;;;;;24.00;11.88;;;3.20;77.70;;;;;;6217984;23;20231;-77
2023/01/26 08:47:44;;;;;;;22.15;12.27;;;3.20;77.80;;;;;;6217160;23;20251;-77
2023/01/26 08:50:12;;;;;;;20.55;11.00;;;3.20;77.70;;;;;;6218273;23;20192;-77
2023/01/26 08:52:41;;;;;;;21.52;10.57;;;3.20;77.80;;;;;;6216046;23;20172;-77
2023/01/26 08:55:11;;;;;;;18.17;10.48;;;3.30;77.80;;;;;;6217315;23;20176;-78
2023/01/26 08:57:39;;;;;;;18.73;10.40;;;3.30;77.80;;;;;;6180006;23;20172;-77
2023/01/26 09:00:08;;;;;;;21.95;11.27;;;3.30;77.80;;;;;;6218490;23;20262;-78
2023/01/26 09:02:36;;;;;;;20.80;11.02;;;3.30;77.80;;;;;;6218048;23;20192;-78
2023/01/26 09:05:05;;;;;;;25.40;12.85;;;3.30;77.80;;;;;;6217560;23;20251;-78
2023/01/26 09:07:33;;;;;;;26.05;12.18;;;3.20;77.60;;;;;;6216730;23;20171;-77
2023/01/26 09:10:01;;;;;;;23.15;11.75;;;3.20;77.70;;;;;;6219821;23;20201;-80
2023/01/26 09:12:30;;;;;;;27.83;12.48;;;3.20;77.70;;;;;;6217475;23;20172;-77
2023/01/26 09:15:00;;;;;;;24.05;13.52;;;3.20;77.70;;;;;;6219617;23;20173;-79
2023/01/26 09:17:28;;;;;;;27.55;14.18;;;3.20;77.80;;;;;;6181082;23;20172;-81
2023/01/26 09:19:56;;;;;;;27.45;14.60;;;3.20;77.80;;;;;;6221042;23;20203;-79
2023/01/26 09:22:24;;;;;;;30.25;14.38;;;3.20;77.70;;;;;;6221043;23;20181;-80
2023/01/26 09:24:52;;;;;;;26.48;14.98;;;3.20;77.60;;;;;;6220389;23;20204;-80
2023/01/26 09:27:20;;;;;;;32.67;17.15;;;3.20;77.50;;;;;;6219403;23;20179;-79
2023/01/26 09:29:49;;;;;;;35.08;17.85;;;3.10;77.60;;;;;;6219110;23;20685;-80
2023/01/26 09:32:17;;;;;;;43.13;20.52;;;3.10;77.70;;;;;;6183987;23;20234;-79
2023/01/26 09:34:45;;;;;;;31.40;17.48;;;3.10;77.70;;;;;;6220882;23;20180;-78
2023/01/26 09:37:13;;;;;;;32.45;17.10;;;3.10;77.80;;;;;;6221370;23;20179;-80
2023/01/26 09:39:41;;;;;;;35.70;17.42;;;3.10;77.80;;;;;;6220390;23;20218;-80
2023/01/26 09:42:30;;;;;;;31.02;16.17;;;3.10;77.80;;;;;;6222331;23;20179;-79
2023/01/26 09:45:15;;;;;;;29.42;15.63;;;3.10;77.80;;;;;;6223699;23;20207;-78
2023/01/26 09:47:58;;;;;;;26.48;13.88;;;3.10;77.80;;;;;;6221184;23;20157;-80
2023/01/26 09:50:30;;;;;;;28.52;15.93;;;3.10;77.80;;;;;;6220223;23;20196;-79
2023/01/26 09:53:02;;;;;;;32.80;15.68;;;3.10;77.80;;;;;;6183242;23;20176;-78
2023/01/26 09:55:30;;;;;;;27.80;13.75;;;3.10;77.90;;;;;;6220780;23;20646;-79
2023/01/26 09:58:02;;;;;;;26.10;14.77;;;3.10;77.70;;;;;;6222313;23;20503;-80
2023/01/26 10:00:35;;;;;;;29.70;15.20;;;3.00;77.70;;;;;;6220951;23;20199;-79
2023/01/26 10:03:18;;;;;;;27.77;13.30;;;3.10;77.90;;;;;;6183433;23;20180;-80
2023/01/26 10:05:51;;;;;;;28.42;13.13;;;3.10;77.80;;;;;;6219805;23;20187;-80
2023/01/26 10:08:41;;;;;;;24.23;11.25;;;3.10;77.90;;;;;;6206273;23;20228;-80
2023/01/26 10:11:16;;;;;;;17.17;8.63;;;3.10;77.90;;;;;;6217174;23;20161;-81
2023/01/26 10:13:50;;;;;;;19.40;10.48;;;3.10;77.90;;;;;;6179661;23;20290;-79
2023/01/26 10:16:23;;;;;;;15.70;8.77;;;3.10;77.80;;;;;;6216917;23;20155;-80
2023/01/26 10:18:56;;;;;;;13.85;8.93;;;3.00;77.80;;;;;;6217993;23;20203;-80
2023/01/26 10:21:29;;;;;;;15.65;8.30;;;3.00;77.90;;;;;;6216917;23;20174;-80
2023/01/26 10:24:00;;;;;;;17.98;8.80;;;3.10;77.90;;;;;;6215819;23;20774;-78
2023/01/26 10:26:32;;;;;;;12.15;7.60;;;3.10;77.90;;;;;;6216208;23;20698;-78
2023/01/26 10:29:01;;;;;;;11.82;7.10;;;3.10;77.80;;;;;;6216608;23;20188;-80
2023/01/26 10:31:32;;;;;;;18.52;9.38;;;3.10;77.90;;;;;;6208461;23;20180;-80
2023/01/26 10:34:09;;;;;;;12.27;7.22;;;3.10;77.90;;;;;;6219074;23;20553;-80
2023/01/26 10:36:40;;;;;;;15.27;7.78;;;3.10;77.90;;;;;;6181083;23;20176;-80
2023/01/26 10:39:08;;;;;;;13.43;8.43;;;3.10;77.80;;;;;;6219759;23;20208;-80
2023/01/26 10:41:38;;;;;;;10.90;6.68;;;3.10;77.70;;;;;;6182407;23;20671;-80
2023/01/26 10:44:23;;;;;;;10.80;6.30;;;3.10;77.80;;;;;;6182919;23;20193;-81
2023/01/26 10:47:06;;;;;;;10.73;6.40;;;3.10;78.00;;;;;;6220547;23;20157;-81
2023/01/26 10:49:34;;;;;;;26.70;10.77;;;3.10;78.00;;;;;;6220969;23;20198;-81
2023/01/26 10:52:07;;;;;;;22.92;9.57;;;3.10;77.70;;;;;;6220079;23;20172;-80
2023/01/26 10:54:38;;;;;;;10.32;6.40;;;3.10;77.60;;;;;;6184229;23;20253;-80
2023/01/26 10:57:17;;;;;;;10.45;5.85;;;3.10;77.80;;;;;;6220436;23;20167;-80
2023/01/26 10:59:51;;;;;;;15.30;8.10;;;3.20;77.90;;;;;;6220969;23;20191;-80
2023/01/26 11:02:27;;;;;;;23.73;9.63;;;3.20;77.80;;;;;;6182856;23;20259;-80
2023/01/26 11:05:04;;;;;;;8.05;4.65;;;3.20;77.60;;;;;;6216745;23;21079;-81
2023/01/26 11:07:34;;;;;;;52.88;16.42;;;3.20;77.50;;;;;;6180155;23;20183;-80
2023/01/26 11:10:19;;;;;;;13.35;7.25;;;3.10;77.50;;;;;;6216116;23;20196;-80
2023/01/26 11:12:47;;;;;;;11.90;7.05;;;3.10;77.30;;;;;;6181473;23;20175;-79
2023/01/26 11:15:20;;;;;;;10.02;6.10;;;3.00;77.20;;;;;;6180638;23;20179;-81
2023/01/26 11:17:59;;;;;;;9.07;5.90;;;3.00;77.40;;;;;;6215565;23;20168;-79
2023/01/26 11:20:44;;;;;;;10.55;5.40;;;3.00;77.20;;;;;;6216453;23;20200;-80
2023/01/26 11:23:24;;;;;;;9.88;5.55;;;3.00;77.30;;;;;;6214067;23;20156;-78
2023/01/26 11:26:20;;;;;;;8.02;4.57;;;3.00;77.30;;;;;;6215649;23;20160;-78
2023/01/26 11:29:00;;;;;;;9.60;5.90;;;3.00;77.30;;;;;;6216055;23;20192;-78
2023/01/26 11:31:40;;;;;;;10.90;5.65;;;3.00;77.20;;;;;;6220330;23;20567;-79
2023/01/26 11:34:24;;;;;;;9.13;5.28;;;3.00;77.30;;;;;;6180464;23;20872;-79
2023/01/26 11:36:59;;;;;;;9.55;5.35;;;3.10;77.30;;;;;;6180275;23;20179;-79
2023/01/26 11:39:35;;;;;;;9.15;5.80;;;3.10;77.20;;;;;;6219592;23;20193;-81
2023/01/26 11:42:18;;;;;;;8.82;5.38;;;3.10;77.20;;;;;;6185989;23;20176;-81
2023/01/26 11:44:58;;;;;;;8.05;4.72;;;3.20;77.20;;;;;;6225446;23;20484;-81
2023/01/26 11:47:47;;;;;;;9.35;5.35;;;3.20;77.20;;;;;;6225402;23;20152;-81
2023/01/26 11:50:28;;;;;;;8.70;4.55;;;3.20;77.10;;;;;;6219687;23;20191;-81
2023/01/26 11:53:30;;;;;;;8.55;4.45;;;3.20;77.00;;;;;;6185826;23;20199;-82
2023/01/26 11:56:18;;;;;;;12.77;9.27;;;3.20;77.00;;;;;;6186037;23;20543;-83
2023/01/26 11:58:51;;;;;;;7.07;4.57;;;3.20;76.80;;;;;;6184684;23;20197;-82
2023/01/26 12:01:27;;;;;;;7.65;4.72;;;3.20;76.40;;;;;;6223144;23;20239;-79
2023/01/26 12:03:56;;;;;;;9.63;5.32;;;3.10;76.20;;;;;;6223369;23;20203;-81
2023/01/26 12:06:31;;;;;;;10.15;5.45;;;3.00;76.30;;;;;;6225954;23;20173;-83
2023/01/26 12:09:03;;;;;;;9.40;6.28;;;2.90;76.20;;;;;;6187288;23;20195;-85
2023/01/26 12:11:37;;;;;;;11.13;6.10;;;2.80;76.50;;;;;;6186848;23;20194;-81
2023/01/26 12:14:18;;;;;;;10.05;5.80;;;2.80;76.70;;;;;;6222974;23;20152;-82
2023/01/26 12:17:02;;;;;;;10.90;6.20;;;2.90;76.80;;;;;;6187675;23;20509;-83
2023/01/26 12:19:53;;;;;;;9.95;6.13;;;3.00;76.80;;;;;;6188356;23;20204;-85
2023/01/26 12:22:29;;;;;;;10.48;5.60;;;3.00;76.80;;;;;;6223772;23;20215;-85
2023/01/26 12:25:13;;;;;;;12.23;6.28;;;3.00;76.80;;;;;;6222383;23;20651;-83
2023/01/26 12:27:53;;;;;;;10.70;7.03;;;3.10;76.80;;;;;;6184127;23;20177;-82
2023/01/26 12:30:34;;;;;;;12.93;7.38;;;3.10;76.80;;;;;;6186681;23;20281;-85
2023/01/26 12:33:03;;;;;;;10.32;6.72;;;3.20;76.90;;;;;;6184419;23;20180;-82
2023/01/26 12:36:01;;;;;;;12.23;7.95;;;3.20;76.80;;;;;;6222684;23;20175;-82
2023/01/26 12:38:41;;;;;;;13.65;8.48;;;3.20;76.70;;;;;;6178848;23;20659;-83
2023/01/26 12:41:15;;;;;;;12.18;8.27;;;3.20;76.70;;;;;;6186203;23;20182;-83
2023/01/26 12:43:56;;;;;;;13.18;7.72;;;3.20;76.80;;;;;;6182903;23;20180;-86
2023/01/26 12:46:28;;;;;;;13.82;7.55;;;3.20;76.60;;;;;;6182824;23;20164;-83
2023/01/26 12:49:02;;;;;;;15.23;8.65;;;3.20;76.70;;;;;;6184206;23;20207;-82
2023/01/26 12:51:35;;;;;;;12.20;7.10;;;3.20;76.60;;;;;;6183489;23;20173;-83
2023/01/26 12:54:12;;;;;;;10.70;6.40;;;3.20;76.50;;;;;;6220101;23;20215;-82
2023/01/26 12:56:44;;;;;;;8.27;5.65;;;3.20;76.50;;;;;;6220122;23;20171;-83
2023/01/26 12:59:18;;;;;;;11.90;6.40;;;3.20;76.40;;;;;;6182992;23;20200;-83
2023/01/26 13:02:20;;;;;;;12.38;7.63;;;3.20;76.20;;;;;;6181860;23;20191;-82
2023/01/26 13:04:50;;;;;;;9.85;6.18;;;3.00;76.00;;;;;;6183484;23;20208;-83
2023/01/26 13:07:30;;;;;;;8.93;5.25;;;3.00;75.90;;;;;;6184007;23;20207;-83
2023/01/26 13:10:23;;;;;;;12.80;7.30;;;2.90;76.10;;;;;;6185082;23;20215;-82
2023/01/26 13:12:54;;;;;;;17.48;7.85;;;2.80;76.20;;;;;;6185144;23;20176;-81
2023/01/26 13:15:23;;;;;;;8.70;5.25;;;2.80;76.20;;;;;;6191857;23;20244;-82
2023/01/26 13:17:57;;;;;;;8.40;5.63;;;2.80;76.40;;;;;;6227897;23;20177;-81
2023/01/26 13:20:28;;;;;;;12.23;7.28;;;2.80;76.50;;;;;;6191188;23;20722;-83
2023/01/26 13:22:57;;;;;;;10.60;6.45;;;2.90;76.60;;;;;;6190503;23;20195;-84
2023/01/26 13:25:31;;;;;;;13.20;5.85;;;2.90;76.40;;;;;;6186188;23;20200;-82
2023/01/26 13:28:01;;;;;;;8.02;5.40;;;2.90;76.50;;;;;;6231114;23;20814;-85
2023/01/26 13:30:41;;;;;;;8.20;5.63;;;3.00;76.50;;;;;;6189048;23;20258;-83
2023/01/26 13:33:15;;;;;;;9.60;5.70;;;3.00;76.50;;;;;;6221203;23;20306;-83
2023/01/26 13:35:45;;;;;;;7.93;5.15;;;3.00;76.40;;;;;;6183323;23;20300;-82
2023/01/26 13:38:24;;;;;;;7.75;4.80;;;3.00;76.40;;;;;;6220526;23;20560;-82
2023/01/26 13:40:54;;;;;;;9.00;4.47;;;3.00;76.30;;;;;;6184567;23;20946;-82
2023/01/26 13:43:30;;;;;;;8.45;5.30;;;3.00;76.40;;;;;;6185130;23;20188;-83
2023/01/26 13:46:13;;;;;;;6.72;4.32;;;3.10;76.50;;;;;;6186100;23;20202;-81
2023/01/26 13:48:44;;;;;;;8.00;4.80;;;3.10;76.40;;;;;;6222245;23;20195;-82
2023/01/26 13:51:16;;;;;;;114.70;57.03;;;3.10;76.20;;;;;;6185105;23;20180;-82
2023/01/26 13:53:48;;;;;;;31.85;18.77;;;3.10;76.20;;;;;;6185082;23;20631;-81
2023/01/26 13:56:26;;;;;;;13.38;6.55;;;3.10;76.20;;;;;;6222317;23;20554;-83
2023/01/26 13:59:07;;;;;;;11.90;7.00;;;3.10;76.20;;;;;;6187183;23;20203;-83